Time;durP1;ratioP1;P1;durP2;ratioP2;P2;SDS_P1;SDS_P2;PMS_P1;PMS_P2;Temp;Humidity;BMP_temperature;BMP_pressure;BME280_temperature;BME280_humidity;BME280_pressure;Samples;Min_cycle;Max_cycle;Signal;HPM_P1;HPM_P2
2022/12/20 00:01:18;;;;;;;30.67;22.90;;;7.60;97.60;;;;;;4590263;19;20018;-30
2022/12/20 00:02:49;;;;;;;32.40;23.10;;;7.60;97.50;;;;;;4591191;19;20022;-27
2022/12/20 00:04:20;;;;;;;31.08;23.33;;;7.60;97.50;;;;;;4591410;19;20461;-29
2022/12/20 00:05:52;;;;;;;33.53;24.10;;;7.50;97.70;;;;;;4591036;19;20039;-30
2022/12/20 00:07:23;;;;;;;32.50;23.60;;;7.50;97.60;;;;;;4590922;19;20019;-29
2022/12/20 00:08:55;;;;;;;31.98;23.25;;;7.50;97.90;;;;;;4590818;19;20010;-33
2022/12/20 00:10:27;;;;;;;33.10;23.43;;;7.50;97.90;;;;;;4591660;19;20090;-26
2022/12/20 00:11:58;;;;;;;30.17;23.00;;;7.50;98.20;;;;;;4590101;19;20791;-27
2022/12/20 00:13:29;;;;;;;31.45;21.90;;;7.50;98.30;;;;;;4591731;19;20028;-27
2022/12/20 00:15:00;;;;;;;31.20;21.98;;;7.50;98.20;;;;;;4592082;19;20010;-28
2022/12/20 00:16:32;;;;;;;33.30;23.95;;;7.50;98.30;;;;;;4591344;19;20042;-30
2022/12/20 00:18:03;;;;;;;30.02;22.35;;;7.50;98.30;;;;;;4589439;19;20460;-30
2022/12/20 00:19:35;;;;;;;31.05;22.92;;;7.50;98.50;;;;;;4588938;19;20015;-28
2022/12/20 00:21:07;;;;;;;31.98;23.10;;;7.40;98.40;;;;;;4589110;19;20019;-29
2022/12/20 00:22:38;;;;;;;31.93;23.10;;;7.40;98.40;;;;;;4591682;19;20464;-32
2022/12/20 00:24:09;;;;;;;33.50;23.63;;;7.40;98.50;;;;;;4590617;19;20453;-28
2022/12/20 00:25:40;;;;;;;29.83;21.70;;;7.40;98.60;;;;;;4590627;19;20046;-29
2022/12/20 00:27:12;;;;;;;29.35;22.15;;;7.40;98.70;;;;;;4588828;19;20486;-29
2022/12/20 00:28:44;;;;;;;;;;;7.40;98.70;;;;;;4591195;19;20105;-28
2022/12/20 00:30:15;;;;;;;28.08;21.38;;;7.40;98.80;;;;;;4590335;19;19926;-27
2022/12/20 00:31:46;;;;;;;30.73;21.83;;;7.40;99.00;;;;;;4589431;19;20032;-28
2022/12/20 00:33:17;;;;;;;31.48;22.20;;;7.30;99.10;;;;;;4591210;19;20032;-29
2022/12/20 00:34:48;;;;;;;31.50;23.50;;;7.30;99.20;;;;;;4590603;19;20010;-29
2022/12/20 00:36:20;;;;;;;30.05;21.17;;;7.30;99.20;;;;;;4589899;19;20022;-29
2022/12/20 00:37:51;;;;;;;29.83;23.17;;;7.30;99.30;;;;;;4591339;19;20126;-31
2022/12/20 00:39:22;;;;;;;32.15;22.90;;;7.30;99.20;;;;;;4590305;19;20895;-31
2022/12/20 00:41:07;;;;;;;32.00;20.55;;;7.30;99.40;;;;;;4586917;19;20026;-28
2022/12/20 00:42:38;;;;;;;32.40;23.27;;;7.30;99.60;;;;;;4590374;19;20014;-26
2022/12/20 00:44:09;;;;;;;29.73;22.58;;;7.30;99.90;;;;;;4590445;19;21036;-27
2022/12/20 00:45:40;;;;;;;31.63;23.33;;;7.30;99.90;;;;;;4590185;19;20047;-28
2022/12/20 00:47:12;;;;;;;30.55;23.27;;;7.30;99.90;;;;;;4588593;19;20409;-30
2022/12/20 00:48:43;;;;;;;28.60;21.02;;;7.30;99.90;;;;;;4590235;19;20034;-29
2022/12/20 00:50:14;;;;;;;29.83;22.95;;;7.30;99.90;;;;;;4590586;19;20015;-27
2022/12/20 00:51:45;;;;;;;30.02;22.00;;;7.30;99.90;;;;;;4589776;19;20011;-28
2022/12/20 00:53:16;;;;;;;30.67;22.38;;;7.30;99.90;;;;;;4589105;19;20019;-28
2022/12/20 00:54:47;;;;;;;30.83;22.95;;;7.30;99.90;;;;;;4590652;19;20554;-28
2022/12/20 00:56:19;;;;;;;31.30;22.95;;;7.30;99.90;;;;;;4589426;19;20078;-26
2022/12/20 00:57:50;;;;;;;30.23;21.67;;;7.30;99.90;;;;;;4590693;19;20047;-29
2022/12/20 00:59:21;;;;;;;28.02;21.17;;;7.30;99.90;;;;;;4589781;19;20368;-28
2022/12/20 01:00:53;;;;;;;29.67;20.80;;;7.30;99.90;;;;;;4590458;19;20157;-28
2022/12/20 01:02:24;;;;;;;30.30;23.25;;;7.30;99.90;;;;;;4588755;19;20475;-28
2022/12/20 01:03:55;;;;;;;31.20;22.33;;;7.30;99.90;;;;;;4588878;19;20380;-28
2022/12/20 01:05:27;;;;;;;29.80;21.98;;;7.30;99.90;;;;;;4588928;19;20483;-30
2022/12/20 01:06:58;;;;;;;29.67;22.55;;;7.30;99.90;;;;;;4590271;19;20014;-29
2022/12/20 01:08:30;;;;;;;31.65;22.60;;;7.20;99.90;;;;;;4589323;19;20070;-28
2022/12/20 01:10:01;;;;;;;31.47;23.50;;;7.30;99.90;;;;;;4588151;19;20022;-29
2022/12/20 01:11:33;;;;;;;34.15;23.23;;;7.30;99.90;;;;;;4588051;19;20529;-29
2022/12/20 01:13:04;;;;;;;31.40;22.97;;;7.30;99.90;;;;;;4590988;19;20010;-29
2022/12/20 01:14:36;;;;;;;30.98;21.45;;;7.30;99.90;;;;;;4589447;19;20503;-28
2022/12/20 01:16:09;;;;;;;31.63;22.45;;;7.30;99.90;;;;;;4590139;19;20018;-29
2022/12/20 01:17:40;;;;;;;30.57;22.27;;;7.20;99.90;;;;;;4589534;19;20480;-26
2022/12/20 01:19:13;;;;;;;32.22;22.65;;;7.30;99.90;;;;;;4590580;19;20453;-29
2022/12/20 01:20:44;;;;;;;30.60;20.97;;;7.30;99.90;;;;;;4589286;19;20018;-28
2022/12/20 01:22:15;;;;;;;32.03;21.92;;;7.30;99.90;;;;;;4588270;19;20559;-28
2022/12/20 01:23:47;;;;;;;29.83;22.80;;;7.30;99.90;;;;;;4590450;19;20025;-28
2022/12/20 01:25:18;;;;;;;34.28;24.00;;;7.30;99.90;;;;;;4587783;19;20014;-28
2022/12/20 01:26:49;;;;;;;32.47;22.17;;;7.30;99.90;;;;;;4590177;19;20011;-29
2022/12/20 01:28:20;;;;;;;33.45;23.42;;;7.20;99.90;;;;;;4589665;19;20114;-27
2022/12/20 01:29:51;;;;;;;31.30;23.70;;;7.30;99.90;;;;;;4590234;19;20017;-30
2022/12/20 01:31:22;;;;;;;32.20;22.60;;;7.20;99.90;;;;;;4588922;19;20094;-29
2022/12/20 01:32:54;;;;;;;31.30;22.90;;;7.30;99.90;;;;;;4589551;19;20479;-27
2022/12/20 01:34:25;;;;;;;32.00;23.98;;;7.20;99.90;;;;;;4588364;19;20010;-28
2022/12/20 01:36:00;;;;;;;35.25;23.33;;;7.20;99.90;;;;;;4589629;19;20014;-28
2022/12/20 01:37:32;;;;;;;35.23;23.63;;;7.20;99.90;;;;;;4587687;19;20084;-28
2022/12/20 01:39:05;;;;;;;31.08;21.50;;;7.30;99.90;;;;;;4587704;19;20461;-29
2022/12/20 01:40:38;;;;;;;31.30;22.40;;;7.20;99.90;;;;;;4589879;19;20370;-28
2022/12/20 01:42:13;;;;;;;29.90;21.50;;;7.30;99.90;;;;;;4589138;19;21070;-29
2022/12/20 01:43:49;;;;;;;34.80;23.53;;;7.20;99.90;;;;;;4590351;19;20457;-28
2022/12/20 01:45:31;;;;;;;28.60;21.30;;;7.20;99.90;;;;;;4589076;19;20484;-26
2022/12/20 01:47:02;;;;;;;33.47;22.90;;;7.20;99.90;;;;;;4588930;19;20461;-27
2022/12/20 01:48:33;;;;;;;31.77;22.40;;;7.20;99.90;;;;;;4588897;19;20532;-29
2022/12/20 01:50:05;;;;;;;29.65;22.70;;;7.20;99.90;;;;;;4587946;19;20420;-28
2022/12/20 01:51:47;;;;;;;32.87;24.40;;;7.20;99.90;;;;;;4588502;19;20033;-29
2022/12/20 01:53:20;;;;;;;30.80;23.08;;;7.20;99.90;;;;;;4591104;19;20460;-30
2022/12/20 01:55:16;;;;;;;31.70;21.73;;;7.20;99.90;;;;;;4594097;19;20041;-28
2022/12/20 01:56:52;;;;;;;31.97;23.50;;;7.20;99.90;;;;;;4592603;19;20453;-29
2022/12/20 01:58:23;;;;;;;32.37;23.37;;;7.20;99.90;;;;;;4590932;19;21071;-27
2022/12/20 01:59:54;;;;;;;33.20;23.33;;;7.20;99.90;;;;;;4591417;19;20499;-28
2022/12/20 02:01:26;;;;;;;31.27;22.55;;;7.20;99.90;;;;;;4590308;19;20014;-29
2022/12/20 02:03:00;;;;;;;33.33;24.88;;;7.20;99.90;;;;;;4589512;19;20014;-30
2022/12/20 02:04:31;;;;;;;33.07;24.57;;;7.20;99.90;;;;;;4591854;19;20011;-30
2022/12/20 02:06:20;;;;;;;29.63;23.05;;;7.20;99.90;;;;;;4589834;19;20537;-28
2022/12/20 02:07:53;;;;;;;32.27;22.30;;;7.10;99.90;;;;;;4590792;19;20030;-28
2022/12/20 02:09:24;;;;;;;32.53;23.30;;;7.20;99.90;;;;;;4589820;19;20457;-27
2022/12/20 02:11:10;;;;;;;35.30;24.58;;;7.20;99.90;;;;;;4591985;19;20903;-30
2022/12/20 02:12:42;;;;;;;34.43;24.97;;;7.20;99.90;;;;;;4590834;19;20011;-28
2022/12/20 02:14:34;;;;;;;33.87;23.53;;;7.20;99.90;;;;;;4589861;19;20533;-27
2022/12/20 02:16:06;;;;;;;33.97;23.93;;;7.20;99.90;;;;;;4591696;19;20494;-28
2022/12/20 02:18:19;;;;;;;33.88;23.80;;;7.20;99.90;;;;;;4591129;19;21067;-28
2022/12/20 02:20:21;;;;;;;34.70;23.70;;;7.10;99.90;;;;;;4591753;19;20073;-27
2022/12/20 02:22:28;;;;;;;34.05;23.40;;;7.10;99.90;;;;;;4590262;19;20460;-29
2022/12/20 02:24:33;;;;;;;35.27;24.53;;;7.10;99.90;;;;;;4589616;19;20423;-28
2022/12/20 02:26:37;;;;;;;34.93;25.30;;;7.10;99.90;;;;;;4590330;19;20533;-31
2022/12/20 02:28:48;;;;;;;32.87;24.33;;;7.10;99.90;;;;;;4591402;19;20589;-27
2022/12/20 02:30:20;;;;;;;38.50;27.33;;;7.10;99.90;;;;;;4589038;19;20417;-27
2022/12/20 02:32:08;;;;;;;36.57;26.70;;;7.10;99.90;;;;;;4590728;19;21277;-29
2022/12/20 02:33:41;;;;;;;38.87;25.70;;;7.20;99.90;;;;;;4589174;19;20540;-27
2022/12/20 02:35:14;;;;;;;37.20;25.70;;;7.20;99.90;;;;;;4591004;19;20850;-27
2022/12/20 02:36:45;;;;;;;40.17;27.63;;;7.20;99.90;;;;;;4590943;19;20535;-28
2022/12/20 02:38:33;;;;;;;36.53;27.65;;;7.20;99.90;;;;;;4591011;19;20591;-29
2022/12/20 02:40:04;;;;;;;37.17;25.27;;;7.20;99.90;;;;;;4590215;19;20017;-26
2022/12/20 02:41:40;;;;;;;38.67;27.67;;;7.20;99.90;;;;;;4590575;19;20472;-29
2022/12/20 02:45:14;;;;;;;36.47;25.43;;;7.10;99.90;;;;;;4589957;19;20511;-27
2022/12/20 02:46:45;;;;;;;39.10;28.50;;;7.10;99.90;;;;;;4591156;19;21137;-32
2022/12/20 02:48:16;;;;;;;39.10;27.10;;;7.10;99.90;;;;;;4590039;19;20507;-28
2022/12/20 02:49:48;;;;;;;37.03;25.88;;;7.10;99.90;;;;;;4590762;19;20007;-28
2022/12/20 02:51:19;;;;;;;37.40;26.40;;;7.10;99.90;;;;;;4590018;19;20014;-30
2022/12/20 02:52:51;;;;;;;34.60;25.53;;;7.10;99.90;;;;;;4588790;19;20017;-32
2022/12/20 02:54:22;;;;;;;36.22;25.35;;;7.10;99.90;;;;;;4590600;19;21128;-27
2022/12/20 02:56:01;;;;;;;35.10;26.45;;;7.10;99.90;;;;;;4589095;19;20022;-30
2022/12/20 02:57:45;;;;;;;34.73;25.13;;;7.10;99.90;;;;;;4590152;19;20118;-30
2022/12/20 02:59:23;;;;;;;37.23;25.87;;;7.10;99.90;;;;;;4590270;19;20444;-27
2022/12/20 03:00:55;;;;;;;37.67;26.23;;;7.10;99.90;;;;;;4589323;19;20523;-28
2022/12/20 03:02:26;;;;;;;;;;;7.10;99.90;;;;;;4593448;19;20476;-27
2022/12/20 03:03:58;;;;;;;38.97;26.63;;;7.10;99.90;;;;;;4589770;19;19923;-28
2022/12/20 03:05:29;;;;;;;41.08;29.08;;;7.10;99.90;;;;;;4589119;19;20480;-30
2022/12/20 03:07:03;;;;;;;36.50;25.45;;;7.10;99.90;;;;;;4591381;19;20018;-28
2022/12/20 03:08:35;;;;;;;36.13;26.77;;;7.10;99.90;;;;;;4591727;19;20006;-27
2022/12/20 03:10:07;;;;;;;36.13;25.92;;;7.10;99.90;;;;;;4591995;19;20556;-28
2022/12/20 03:11:38;;;;;;;;;;;7.10;99.90;;;;;;4590982;19;20037;-29
2022/12/20 03:13:09;;;;;;;38.23;27.13;;;7.10;99.90;;;;;;4592559;19;19919;-26
2022/12/20 03:14:40;;;;;;;36.22;24.83;;;7.10;99.90;;;;;;4591003;19;20038;-29
2022/12/20 03:16:11;;;;;;;37.97;26.00;;;7.10;99.90;;;;;;4592808;19;20019;-28
2022/12/20 03:17:43;;;;;;;36.95;25.85;;;7.10;99.90;;;;;;4591293;19;20122;-27
2022/12/20 03:19:14;;;;;;;36.13;26.15;;;7.10;99.90;;;;;;4592183;19;20056;-28
2022/12/20 03:20:45;;;;;;;34.17;24.73;;;7.10;99.90;;;;;;4592127;19;20025;-29
2022/12/20 03:22:16;;;;;;;33.72;24.67;;;7.10;99.90;;;;;;4591138;19;20022;-27
2022/12/20 03:23:47;;;;;;;36.17;25.42;;;7.10;99.90;;;;;;4590269;19;20035;-28
2022/12/20 03:25:19;;;;;;;39.90;26.20;;;7.10;99.90;;;;;;4590166;19;20017;-28
2022/12/20 03:26:50;;;;;;;37.67;25.55;;;7.10;99.90;;;;;;4593135;19;20006;-31
2022/12/20 03:28:21;;;;;;;39.55;28.75;;;7.10;99.90;;;;;;4589556;19;20487;-31
2022/12/20 03:29:52;;;;;;;37.70;25.88;;;7.10;99.90;;;;;;4591572;19;20074;-29
2022/12/20 03:31:23;;;;;;;36.50;24.38;;;7.10;99.90;;;;;;4591162;19;20018;-32
2022/12/20 03:32:54;;;;;;;35.65;24.33;;;7.10;99.90;;;;;;4591777;19;20490;-28
2022/12/20 03:34:26;;;;;;;36.95;25.98;;;7.10;99.90;;;;;;4591344;19;20081;-29
2022/12/20 03:35:57;;;;;;;35.13;24.30;;;7.10;99.90;;;;;;4591200;19;20467;-27
2022/12/20 03:37:28;;;;;;;32.85;23.58;;;7.10;99.90;;;;;;4591438;19;20021;-30
2022/12/20 03:38:59;;;;;;;38.15;26.25;;;7.10;99.90;;;;;;4590740;19;20026;-31
2022/12/20 03:40:30;;;;;;;35.60;24.58;;;7.10;99.90;;;;;;4592547;19;20014;-28
2022/12/20 03:42:02;;;;;;;38.85;26.23;;;7.10;99.90;;;;;;4591651;19;20502;-26
2022/12/20 03:43:33;;;;;;;36.50;25.10;;;7.10;99.90;;;;;;4591950;19;20352;-28
2022/12/20 03:45:04;;;;;;;34.15;25.05;;;7.10;99.90;;;;;;4592040;19;20011;-26
2022/12/20 03:46:36;;;;;;;38.60;26.73;;;7.10;99.90;;;;;;4592332;19;20021;-27
2022/12/20 03:48:07;;;;;;;35.67;25.42;;;7.10;99.90;;;;;;4591321;19;20022;-30
2022/12/20 03:49:39;;;;;;;35.00;24.60;;;7.10;99.90;;;;;;4590765;19;20490;-26
2022/12/20 03:51:10;;;;;;;33.60;24.20;;;7.10;99.90;;;;;;4591372;19;20491;-27
2022/12/20 03:52:42;;;;;;;36.05;25.27;;;7.10;99.90;;;;;;4589835;19;20074;-26
2022/12/20 03:54:13;;;;;;;34.17;25.10;;;7.10;99.90;;;;;;4592119;19;20045;-26
2022/12/20 03:55:44;;;;;;;34.85;23.90;;;7.10;99.90;;;;;;4591186;19;20019;-27
2022/12/20 03:57:15;;;;;;;32.15;23.02;;;7.10;99.90;;;;;;4591207;19;20491;-29
2022/12/20 03:58:46;;;;;;;33.22;23.75;;;7.10;99.90;;;;;;4590805;19;20013;-29
2022/12/20 04:00:19;;;;;;;33.95;23.90;;;7.10;99.90;;;;;;4591583;19;20494;-28
2022/12/20 04:01:50;;;;;;;33.87;24.53;;;7.10;99.90;;;;;;4590747;19;20092;-29
2022/12/20 04:03:21;;;;;;;32.25;22.75;;;7.10;99.90;;;;;;4590902;19;21418;-30
2022/12/20 04:04:52;;;;;;;33.63;22.67;;;7.10;99.90;;;;;;4588993;19;20019;-25
2022/12/20 04:06:24;;;;;;;33.50;22.10;;;7.70;99.90;;;;;;4589560;19;20489;-29
2022/12/20 04:07:55;;;;;;;37.63;24.48;;;8.40;99.90;;;;;;4590934;19;20467;-28
2022/12/20 04:09:26;;;;;;;36.17;23.33;;;8.90;99.90;;;;;;4588434;19;20074;-27
2022/12/20 04:11:16;;;;;;;34.55;23.58;;;9.20;99.90;;;;;;4591372;19;20015;-29
2022/12/20 04:12:47;;;;;;;33.67;22.53;;;9.40;99.90;;;;;;4591108;19;20026;-28
2022/12/20 04:14:18;;;;;;;32.65;22.65;;;9.70;99.70;;;;;;4590269;19;20501;-28
2022/12/20 04:15:49;;;;;;;31.45;22.48;;;9.80;99.30;;;;;;4591136;19;20092;-28
2022/12/20 04:17:20;;;;;;;33.83;22.20;;;9.90;99.00;;;;;;4588774;19;20022;-28
2022/12/20 04:18:51;;;;;;;28.77;20.20;;;10.00;98.60;;;;;;4590686;19;20014;-28
2022/12/20 04:20:23;;;;;;;32.38;22.27;;;10.10;98.40;;;;;;4590919;19;20070;-29
2022/12/20 04:21:55;;;;;;;32.20;23.08;;;10.20;98.20;;;;;;4591477;19;20022;-27
2022/12/20 04:23:26;;;;;;;28.20;20.37;;;10.30;98.10;;;;;;4590866;19;20070;-28
2022/12/20 04:24:57;;;;;;;29.20;21.15;;;10.40;97.90;;;;;;4591217;19;20445;-27
2022/12/20 04:26:28;;;;;;;31.15;21.98;;;10.40;97.70;;;;;;4589448;19;20482;-27
2022/12/20 04:27:59;;;;;;;29.80;21.40;;;10.50;97.60;;;;;;4590668;19;20049;-29
2022/12/20 04:29:31;;;;;;;30.10;21.90;;;10.50;97.40;;;;;;4589571;19;20010;-27
2022/12/20 04:31:02;;;;;;;29.35;21.48;;;10.50;97.30;;;;;;4591482;19;20744;-29
2022/12/20 04:32:33;;;;;;;30.27;20.85;;;10.60;97.20;;;;;;4590374;19;20022;-28
2022/12/20 04:34:04;;;;;;;27.00;19.85;;;10.70;97.10;;;;;;4588788;19;20093;-27
2022/12/20 04:35:36;;;;;;;27.65;20.65;;;10.60;97.00;;;;;;4591300;19;20030;-27
2022/12/20 04:37:07;;;;;;;;;;;10.70;96.90;;;;;;4591237;19;20022;-29
2022/12/20 04:38:38;;;;;;;28.53;19.50;;;10.70;96.80;;;;;;4591379;19;19945;-30
2022/12/20 04:40:10;;;;;;;28.73;19.75;;;10.80;96.80;;;;;;4590507;19;20457;-29
2022/12/20 04:41:41;;;;;;;26.42;19.48;;;10.80;96.80;;;;;;4590762;19;20081;-28
2022/12/20 04:43:12;;;;;;;26.85;20.08;;;10.90;96.70;;;;;;4590571;19;20098;-27
2022/12/20 04:44:43;;;;;;;26.55;18.83;;;11.00;96.50;;;;;;4589317;19;20030;-27
2022/12/20 04:46:15;;;;;;;25.73;19.23;;;11.10;96.40;;;;;;4589975;19;20082;-28
2022/12/20 04:47:46;;;;;;;25.08;19.98;;;11.10;96.30;;;;;;4589741;19;20045;-30
2022/12/20 04:49:17;;;;;;;28.33;21.55;;;11.20;96.30;;;;;;4590276;19;20010;-26
2022/12/20 04:50:48;;;;;;;29.60;20.67;;;11.20;96.10;;;;;;4589731;19;20090;-28
2022/12/20 04:54:09;;;;;;;27.37;20.33;;;11.30;95.90;;;;;;4588312;19;20037;-29
2022/12/20 04:55:41;;;;;;;26.80;19.33;;;11.50;95.70;;;;;;4591374;19;20433;-28
2022/12/20 04:57:12;;;;;;;25.63;18.88;;;11.50;95.60;;;;;;4589806;19;20018;-29
2022/12/20 04:58:44;;;;;;;26.45;18.65;;;11.50;95.50;;;;;;4590401;19;20333;-29
2022/12/20 05:00:15;;;;;;;25.40;20.17;;;11.60;95.50;;;;;;4590010;19;20011;-28
2022/12/20 05:01:47;;;;;;;28.57;20.90;;;11.60;95.40;;;;;;4589056;19;20011;-28
2022/12/20 05:03:19;;;;;;;27.15;19.90;;;11.60;95.40;;;;;;4589877;19;20497;-30
2022/12/20 05:04:50;;;;;;;28.07;19.87;;;11.60;95.30;;;;;;4588757;19;20013;-30
2022/12/20 05:06:21;;;;;;;27.55;19.10;;;11.60;95.30;;;;;;4589034;19;20481;-30
2022/12/20 05:07:53;;;;;;;27.10;19.52;;;11.60;95.30;;;;;;4589396;19;20015;-28
2022/12/20 05:09:24;;;;;;;29.73;21.55;;;11.60;95.30;;;;;;4587130;19;20365;-29
2022/12/20 05:10:55;;;;;;;27.85;21.05;;;11.60;95.30;;;;;;4590277;19;20073;-29
2022/12/20 05:12:26;;;;;;;27.05;20.27;;;11.70;95.30;;;;;;4590189;19;20018;-27
2022/12/20 05:13:57;;;;;;;26.35;19.63;;;11.70;95.30;;;;;;4590360;19;20542;-29
2022/12/20 05:15:29;;;;;;;27.52;20.10;;;11.60;95.30;;;;;;4589485;19;20368;-30
2022/12/20 05:17:00;;;;;;;26.63;20.10;;;11.70;95.30;;;;;;4588334;19;20015;-31
2022/12/20 05:18:31;;;;;;;27.70;19.77;;;11.60;95.50;;;;;;4590689;19;20015;-30
2022/12/20 05:20:03;;;;;;;24.90;18.85;;;11.70;95.30;;;;;;4586958;19;20039;-27
2022/12/20 05:27:03;;;;;;;25.87;18.67;;;11.70;95.20;;;;;;4588572;19;20809;-29
2022/12/20 05:28:34;;;;;;;26.13;18.77;;;11.70;95.20;;;;;;4586773;19;20523;-26
2022/12/20 05:30:06;;;;;;;26.67;19.33;;;11.60;95.20;;;;;;4589341;19;20022;-29
2022/12/20 05:31:37;;;;;;;;;;;11.60;95.20;;;;;;4590057;19;20018;-27
2022/12/20 05:33:08;;;;;;;25.90;18.33;;;11.70;95.20;;;;;;4590426;19;19970;-29
2022/12/20 05:34:39;;;;;;;26.38;18.90;;;11.70;95.20;;;;;;4589696;19;20511;-30
2022/12/20 05:36:10;;;;;;;24.67;18.48;;;11.70;95.20;;;;;;4587193;19;20018;-27
2022/12/20 05:37:42;;;;;;;24.67;18.77;;;11.70;95.20;;;;;;4589484;19;20017;-28
2022/12/20 05:39:13;;;;;;;27.50;19.77;;;11.70;95.20;;;;;;4588806;19;20098;-27
2022/12/20 05:40:46;;;;;;;24.58;18.65;;;11.70;95.20;;;;;;4588304;19;20017;-28
2022/12/20 05:42:17;;;;;;;25.53;18.67;;;11.70;95.20;;;;;;4589793;19;20468;-30
2022/12/20 05:43:48;;;;;;;24.75;18.88;;;11.70;95.10;;;;;;4589303;19;20556;-30
2022/12/20 05:45:19;;;;;;;25.65;18.48;;;11.70;95.10;;;;;;4589585;19;20011;-27
2022/12/20 05:46:50;;;;;;;27.40;20.60;;;11.70;95.10;;;;;;4587778;19;20015;-30
2022/12/20 05:48:22;;;;;;;28.55;19.92;;;11.70;95.20;;;;;;4589592;19;20024;-28
2022/12/20 05:49:54;;;;;;;27.35;20.20;;;11.70;95.20;;;;;;4589061;19;20094;-28
2022/12/20 05:51:25;;;;;;;25.03;18.87;;;11.70;95.20;;;;;;4588386;19;20091;-27
2022/12/20 05:52:57;;;;;;;26.08;19.45;;;11.60;95.20;;;;;;4589771;19;20947;-30
2022/12/20 05:54:28;;;;;;;23.67;18.42;;;11.60;95.20;;;;;;4588435;19;20021;-28
2022/12/20 05:56:00;;;;;;;24.05;17.90;;;11.60;95.20;;;;;;4589963;19;20015;-28
2022/12/20 05:57:31;;;;;;;22.63;17.43;;;11.60;95.20;;;;;;4589230;19;20874;-27
2022/12/20 05:59:02;;;;;;;25.90;19.88;;;11.60;95.20;;;;;;4589959;19;20500;-30
2022/12/20 06:00:33;;;;;;;23.40;17.48;;;11.60;95.10;;;;;;4590099;19;20011;-32
2022/12/20 06:02:05;;;;;;;22.88;17.02;;;11.60;95.10;;;;;;4588614;19;20405;-30
2022/12/20 06:03:37;;;;;;;22.45;16.63;;;11.70;95.10;;;;;;4586455;19;20033;-27
2022/12/20 06:05:08;;;;;;;22.27;17.23;;;11.60;95.10;;;;;;4587310;19;20015;-31
2022/12/20 06:06:39;;;;;;;26.08;18.38;;;11.70;95.10;;;;;;4588770;19;20465;-29
2022/12/20 06:08:11;;;;;;;24.63;19.27;;;11.60;95.00;;;;;;4588979;19;20018;-28
2022/12/20 06:09:42;;;;;;;24.23;17.52;;;11.70;95.00;;;;;;4586713;19;20364;-32
2022/12/20 06:11:13;;;;;;;24.77;17.27;;;11.70;95.00;;;;;;4588957;19;20367;-29
2022/12/20 06:12:44;;;;;;;25.70;18.75;;;11.60;95.00;;;;;;4589089;19;20015;-27
2022/12/20 06:14:15;;;;;;;24.67;17.75;;;11.60;95.00;;;;;;4588006;19;20015;-29
2022/12/20 06:15:46;;;;;;;26.00;18.40;;;11.60;95.00;;;;;;4588337;19;20413;-31
2022/12/20 06:17:18;;;;;;;27.30;18.00;;;11.60;95.00;;;;;;4588036;19;20038;-30
2022/12/20 06:18:50;;;;;;;22.67;17.73;;;11.70;95.00;;;;;;4589693;19;20010;-30
2022/12/20 06:20:21;;;;;;;25.50;17.92;;;11.70;94.90;;;;;;4587454;19;20453;-28
2022/12/20 06:21:52;;;;;;;25.05;18.48;;;11.70;94.90;;;;;;4589050;19;20016;-29
2022/12/20 06:23:24;;;;;;;27.23;20.35;;;11.70;94.90;;;;;;4589032;19;20094;-26
2022/12/20 06:24:55;;;;;;;23.20;17.70;;;11.70;94.90;;;;;;4587932;19;20023;-28
2022/12/20 06:26:26;;;;;;;23.10;16.42;;;11.70;94.80;;;;;;4585863;19;20061;-31
2022/12/20 06:27:57;;;;;;;26.55;18.23;;;11.70;94.80;;;;;;4588366;19;20022;-29
2022/12/20 06:29:29;;;;;;;23.88;17.75;;;11.70;94.80;;;;;;4589245;19;20066;-28
2022/12/20 06:31:00;;;;;;;25.15;19.13;;;11.70;94.80;;;;;;4587490;19;20415;-31
2022/12/20 06:32:31;;;;;;;25.08;19.10;;;11.70;94.70;;;;;;4589180;19;20376;-30
2022/12/20 06:34:02;;;;;;;25.80;18.83;;;11.70;94.70;;;;;;4588984;19;20014;-29
2022/12/20 06:35:33;;;;;;;24.23;17.40;;;11.70;94.70;;;;;;4586145;19;20023;-28
2022/12/20 06:37:04;;;;;;;24.90;18.30;;;11.70;94.60;;;;;;4589458;19;20007;-29
2022/12/20 06:38:36;;;;;;;24.52;17.50;;;11.70;94.60;;;;;;4587600;19;20022;-27
2022/12/20 06:40:09;;;;;;;26.90;19.20;;;11.80;94.60;;;;;;4590923;19;20027;-27
2022/12/20 06:41:40;;;;;;;25.80;18.00;;;11.80;94.60;;;;;;4593074;19;20010;-29
2022/12/20 06:43:12;;;;;;;24.17;18.10;;;11.80;94.60;;;;;;4593532;19;21413;-29
2022/12/20 06:44:43;;;;;;;25.83;18.63;;;11.80;94.50;;;;;;4591905;19;20030;-29
2022/12/20 06:46:14;;;;;;;28.38;22.35;;;11.80;94.50;;;;;;4592170;19;20021;-29
2022/12/20 06:47:45;;;;;;;30.10;22.15;;;10.70;95.10;;;;;;4591738;19;20094;-28
2022/12/20 06:49:16;;;;;;;29.73;20.13;;;9.30;97.60;;;;;;4592684;19;20014;-30
2022/12/20 06:50:48;;;;;;;31.10;20.95;;;9.00;98.80;;;;;;4591701;19;20493;-31
2022/12/20 06:52:20;;;;;;;29.37;21.43;;;9.60;98.00;;;;;;4593720;19;20010;-28
2022/12/20 06:53:51;;;;;;;27.85;20.60;;;10.20;97.00;;;;;;4591463;19;20519;-28
2022/12/20 06:55:22;;;;;;;29.83;20.40;;;10.70;96.30;;;;;;4592025;19;20010;-31
2022/12/20 06:56:53;;;;;;;29.00;20.45;;;11.00;95.90;;;;;;4593777;19;20019;-29
2022/12/20 06:58:24;;;;;;;26.90;19.92;;;11.20;95.50;;;;;;4591463;19;20011;-27
2022/12/20 06:59:55;;;;;;;27.00;20.40;;;11.30;95.20;;;;;;4593331;19;20039;-27
2022/12/20 07:01:27;;;;;;;34.55;24.05;;;11.40;95.10;;;;;;4592333;19;20027;-29
2022/12/20 07:02:58;;;;;;;49.42;31.45;;;11.50;94.90;;;;;;4591562;19;20025;-27
2022/12/20 07:04:29;;;;;;;51.65;31.45;;;11.50;94.80;;;;;;4590682;19;20102;-29
2022/12/20 07:06:00;;;;;;;47.78;31.13;;;11.60;94.70;;;;;;4590925;19;20026;-27
2022/12/20 07:07:31;;;;;;;47.25;29.38;;;11.60;94.60;;;;;;4592876;19;20413;-29
2022/12/20 07:09:03;;;;;;;36.13;24.65;;;11.70;94.60;;;;;;4592568;19;20021;-29
2022/12/20 07:10:34;;;;;;;27.95;19.92;;;11.80;94.40;;;;;;4592943;19;20086;-28
2022/12/20 07:12:06;;;;;;;27.08;20.02;;;11.90;94.30;;;;;;4591717;19;20337;-27
2022/12/20 07:13:37;;;;;;;29.57;21.33;;;12.00;94.30;;;;;;4591740;19;20356;-27
2022/12/20 07:15:09;;;;;;;26.58;19.20;;;12.00;94.20;;;;;;4592393;19;20559;-29
2022/12/20 07:16:42;;;;;;;28.92;20.95;;;12.00;94.20;;;;;;4593061;19;20010;-33
2022/12/20 07:18:13;;;;;;;29.03;21.53;;;11.90;94.10;;;;;;4591995;19;20361;-26
2022/12/20 07:19:44;;;;;;;30.92;22.27;;;11.90;94.10;;;;;;4591458;19;20457;-31
2022/12/20 07:21:16;;;;;;;29.92;22.50;;;11.90;94.10;;;;;;4591284;19;20018;-28
2022/12/20 07:22:47;;;;;;;32.13;22.15;;;11.90;94.10;;;;;;4591308;19;20011;-30
2022/12/20 07:24:19;;;;;;;32.33;22.10;;;12.00;94.10;;;;;;4592440;19;20014;-30
2022/12/20 07:25:54;;;;;;;31.40;23.55;;;12.10;94.00;;;;;;4591010;19;20674;-30
2022/12/20 07:27:25;;;;;;;38.70;27.40;;;12.10;94.00;;;;;;4591825;19;20022;-28
2022/12/20 07:28:56;;;;;;;42.42;29.00;;;12.00;94.00;;;;;;4591805;19;21052;-29
2022/12/20 07:30:28;;;;;;;35.25;24.80;;;12.00;94.00;;;;;;4592610;19;20015;-29
2022/12/20 07:31:59;;;;;;;37.92;25.27;;;12.00;94.00;;;;;;4591663;19;20019;-28
2022/12/20 07:33:30;;;;;;;35.08;25.98;;;11.90;94.00;;;;;;4592508;19;20022;-33
2022/12/20 07:35:01;;;;;;;31.52;24.27;;;11.90;94.00;;;;;;4591205;19;20010;-30
2022/12/20 07:36:32;;;;;;;31.80;22.10;;;11.90;94.10;;;;;;4590694;19;20018;-27
2022/12/20 07:38:04;;;;;;;26.88;20.45;;;11.90;94.10;;;;;;4591251;19;20015;-32
2022/12/20 07:39:35;;;;;;;28.70;20.88;;;11.90;94.00;;;;;;4591600;19;20018;-28
2022/12/20 07:41:13;;;;;;;24.95;18.50;;;11.90;94.00;;;;;;4590748;19;20010;-29
2022/12/20 07:42:45;;;;;;;27.13;19.70;;;11.90;94.00;;;;;;4592166;19;20046;-30
2022/12/20 07:44:16;;;;;;;27.60;18.92;;;11.90;94.00;;;;;;4591553;19;20795;-29
2022/12/20 07:45:47;;;;;;;27.42;20.35;;;11.90;94.30;;;;;;4591476;19;20018;-28
2022/12/20 07:47:18;;;;;;;27.38;20.20;;;11.90;94.00;;;;;;4591168;19;20014;-29
2022/12/20 07:48:49;;;;;;;27.65;20.30;;;11.90;94.00;;;;;;4591980;19;20019;-30
2022/12/20 07:50:20;;;;;;;26.70;21.30;;;11.90;94.00;;;;;;4590939;19;20070;-29
2022/12/20 07:51:54;;;;;;;26.35;20.50;;;11.90;94.00;;;;;;4589463;19;20034;-32
2022/12/20 07:53:25;;;;;;;28.67;20.40;;;12.00;94.10;;;;;;4591621;19;20003;-30
2022/12/20 07:54:58;;;;;;;27.30;21.08;;;11.90;94.00;;;;;;4591133;19;20509;-28
2022/12/20 07:56:32;;;;;;;24.73;19.10;;;12.00;94.10;;;;;;4588748;19;20018;-27
2022/12/20 07:58:05;;;;;;;25.27;19.37;;;11.90;94.00;;;;;;4590639;19;20445;-31
2022/12/20 07:59:41;;;;;;;36.43;24.60;;;11.90;94.00;;;;;;4589635;19;20930;-29
2022/12/20 08:01:12;;;;;;;34.43;25.10;;;11.90;94.10;;;;;;4590290;19;20489;-32
2022/12/20 08:02:54;;;;;;;31.02;24.10;;;11.90;94.10;;;;;;4588093;19;20884;-28
2022/12/20 08:04:25;;;;;;;36.13;25.60;;;11.90;94.10;;;;;;4590679;19;20010;-29